sensor_id;sensor_type;location;lat;lon;timestamp;P1;durP1;ratioP1;P2;durP2;ratioP2
45684;SDS011;46836;48.388;16.210;2023-05-07T00:01:38;7.43;;;4.65;;
45684;SDS011;46836;48.388;16.210;2023-05-07T00:04:06;4.25;;;3.85;;
45684;SDS011;46836;48.388;16.210;2023-05-07T00:06:34;4.45;;;4.05;;
45684;SDS011;46836;48.388;16.210;2023-05-07T00:09:01;4.30;;;3.90;;
45684;SDS011;46836;48.388;16.210;2023-05-07T00:11:30;4.13;;;3.72;;
45684;SDS011;46836;48.388;16.210;2023-05-07T00:13:57;5.60;;;3.95;;
45684;SDS011;46836;48.388;16.210;2023-05-07T00:16:24;5.07;;;4.32;;
45684;SDS011;46836;48.388;16.210;2023-05-07T00:18:52;7.00;;;4.45;;
45684;SDS011;46836;48.388;16.210;2023-05-07T00:21:20;4.18;;;3.85;;
45684;SDS011;46836;48.388;16.210;2023-05-07T00:23:47;4.68;;;4.20;;
45684;SDS011;46836;48.388;16.210;2023-05-07T00:26:14;4.00;;;3.60;;
45684;SDS011;46836;48.388;16.210;2023-05-07T00:28:42;4.90;;;4.00;;
45684;SDS011;46836;48.388;16.210;2023-05-07T00:31:09;4.35;;;3.60;;
45684;SDS011;46836;48.388;16.210;2023-05-07T00:33:37;5.45;;;3.35;;
45684;SDS011;46836;48.388;16.210;2023-05-07T00:36:04;4.22;;;3.80;;
45684;SDS011;46836;48.388;16.210;2023-05-07T00:38:32;4.22;;;3.83;;
45684;SDS011;46836;48.388;16.210;2023-05-07T00:40:59;4.25;;;3.65;;
45684;SDS011;46836;48.388;16.210;2023-05-07T00:43:26;4.68;;;4.00;;
45684;SDS011;46836;48.388;16.210;2023-05-07T00:45:54;4.90;;;4.47;;
45684;SDS011;46836;48.388;16.210;2023-05-07T00:48:21;5.53;;;4.55;;
45684;SDS011;46836;48.388;16.210;2023-05-07T00:50:50;4.80;;;4.40;;
45684;SDS011;46836;48.388;16.210;2023-05-07T00:53:18;5.13;;;4.65;;
45684;SDS011;46836;48.388;16.210;2023-05-07T00:55:45;4.45;;;4.05;;
45684;SDS011;46836;48.388;16.210;2023-05-07T00:58:12;4.35;;;3.80;;
45684;SDS011;46836;48.388;16.210;2023-05-07T01:00:40;4.95;;;4.45;;
45684;SDS011;46836;48.388;16.210;2023-05-07T01:03:07;6.15;;;4.38;;
45684;SDS011;46836;48.388;16.210;2023-05-07T01:05:34;5.80;;;5.20;;
45684;SDS011;46836;48.388;16.210;2023-05-07T01:08:02;4.50;;;4.10;;
45684;SDS011;46836;48.388;16.210;2023-05-07T01:10:30;4.85;;;4.45;;
45684;SDS011;46836;48.388;16.210;2023-05-07T01:12:57;6.50;;;4.95;;
45684;SDS011;46836;48.388;16.210;2023-05-07T01:15:26;5.55;;;4.50;;
45684;SDS011;46836;48.388;16.210;2023-05-07T01:17:53;5.32;;;4.82;;
45684;SDS011;46836;48.388;16.210;2023-05-07T01:20:23;5.07;;;4.45;;
45684;SDS011;46836;48.388;16.210;2023-05-07T01:22:50;5.15;;;4.65;;
45684;SDS011;46836;48.388;16.210;2023-05-07T01:25:18;7.70;;;5.43;;
45684;SDS011;46836;48.388;16.210;2023-05-07T01:27:45;5.60;;;4.90;;
45684;SDS011;46836;48.388;16.210;2023-05-07T01:30:13;4.45;;;4.05;;
45684;SDS011;46836;48.388;16.210;2023-05-07T01:32:42;5.55;;;5.00;;
45684;SDS011;46836;48.388;16.210;2023-05-07T01:35:18;8.48;;;5.72;;
45684;SDS011;46836;48.388;16.210;2023-05-07T01:37:48;7.32;;;4.70;;
45684;SDS011;46836;48.388;16.210;2023-05-07T01:40:16;4.90;;;4.43;;
45684;SDS011;46836;48.388;16.210;2023-05-07T01:42:43;6.03;;;5.43;;
45684;SDS011;46836;48.388;16.210;2023-05-07T01:45:12;5.85;;;5.15;;
45684;SDS011;46836;48.388;16.210;2023-05-07T01:47:39;5.63;;;5.13;;
45684;SDS011;46836;48.388;16.210;2023-05-07T01:50:06;8.40;;;4.63;;
45684;SDS011;46836;48.388;16.210;2023-05-07T01:52:36;5.25;;;4.22;;
45684;SDS011;46836;48.388;16.210;2023-05-07T01:55:05;5.00;;;4.43;;
45684;SDS011;46836;48.388;16.210;2023-05-07T01:57:32;5.00;;;4.50;;
45684;SDS011;46836;48.388;16.210;2023-05-07T01:59:59;5.60;;;4.40;;
45684;SDS011;46836;48.388;16.210;2023-05-07T02:02:26;5.32;;;4.85;;
45684;SDS011;46836;48.388;16.210;2023-05-07T02:04:53;5.15;;;4.68;;
45684;SDS011;46836;48.388;16.210;2023-05-07T02:07:20;6.07;;;4.20;;
45684;SDS011;46836;48.388;16.210;2023-05-07T02:09:47;5.05;;;4.57;;
45684;SDS011;46836;48.388;16.210;2023-05-07T02:12:14;5.85;;;4.30;;
45684;SDS011;46836;48.388;16.210;2023-05-07T02:14:41;5.40;;;4.80;;
45684;SDS011;46836;48.388;16.210;2023-05-07T02:17:09;5.28;;;4.78;;
45684;SDS011;46836;48.388;16.210;2023-05-07T02:19:36;11.32;;;4.25;;
45684;SDS011;46836;48.388;16.210;2023-05-07T02:22:03;5.00;;;4.40;;
45684;SDS011;46836;48.388;16.210;2023-05-07T02:24:30;5.40;;;4.63;;
45684;SDS011;46836;48.388;16.210;2023-05-07T02:26:57;5.50;;;4.55;;
45684;SDS011;46836;48.388;16.210;2023-05-07T02:29:24;9.48;;;5.85;;
45684;SDS011;46836;48.388;16.210;2023-05-07T02:31:51;7.22;;;6.50;;
45684;SDS011;46836;48.388;16.210;2023-05-07T02:34:19;11.50;;;9.68;;
45684;SDS011;46836;48.388;16.210;2023-05-07T02:36:46;9.60;;;8.13;;
45684;SDS011;46836;48.388;16.210;2023-05-07T02:39:13;11.10;;;8.43;;
45684;SDS011;46836;48.388;16.210;2023-05-07T02:41:41;11.20;;;9.57;;
45684;SDS011;46836;48.388;16.210;2023-05-07T02:44:08;11.18;;;8.90;;
45684;SDS011;46836;48.388;16.210;2023-05-07T02:46:35;11.30;;;8.82;;
45684;SDS011;46836;48.388;16.210;2023-05-07T02:49:02;10.00;;;9.00;;
45684;SDS011;46836;48.388;16.210;2023-05-07T02:51:30;10.60;;;8.57;;
45684;SDS011;46836;48.388;16.210;2023-05-07T02:53:57;9.48;;;7.93;;
45684;SDS011;46836;48.388;16.210;2023-05-07T02:56:25;10.15;;;8.13;;
45684;SDS011;46836;48.388;16.210;2023-05-07T02:58:53;8.10;;;7.30;;
45684;SDS011;46836;48.388;16.210;2023-05-07T03:01:20;9.52;;;6.30;;
45684;SDS011;46836;48.388;16.210;2023-05-07T03:03:47;6.60;;;6.00;;
45684;SDS011;46836;48.388;16.210;2023-05-07T03:06:14;7.60;;;6.80;;
45684;SDS011;46836;48.388;16.210;2023-05-07T03:08:41;8.85;;;6.70;;
45684;SDS011;46836;48.388;16.210;2023-05-07T03:11:09;7.25;;;6.38;;
45684;SDS011;46836;48.388;16.210;2023-05-07T03:13:36;7.72;;;6.13;;
45684;SDS011;46836;48.388;16.210;2023-05-07T03:16:03;11.10;;;6.53;;
45684;SDS011;46836;48.388;16.210;2023-05-07T03:18:31;7.30;;;6.43;;
45684;SDS011;46836;48.388;16.210;2023-05-07T03:20:58;6.68;;;6.07;;
45684;SDS011;46836;48.388;16.210;2023-05-07T03:23:25;6.60;;;5.88;;
45684;SDS011;46836;48.388;16.210;2023-05-07T03:25:52;9.02;;;6.28;;
45684;SDS011;46836;48.388;16.210;2023-05-07T03:28:19;9.68;;;6.65;;
45684;SDS011;46836;48.388;16.210;2023-05-07T03:30:46;8.55;;;7.32;;
45684;SDS011;46836;48.388;16.210;2023-05-07T03:33:13;8.40;;;7.50;;
45684;SDS011;46836;48.388;16.210;2023-05-07T03:35:40;7.45;;;6.65;;
45684;SDS011;46836;48.388;16.210;2023-05-07T03:38:07;8.93;;;7.43;;
45684;SDS011;46836;48.388;16.210;2023-05-07T03:40:34;7.65;;;6.43;;
45684;SDS011;46836;48.388;16.210;2023-05-07T03:43:01;8.95;;;6.90;;
45684;SDS011;46836;48.388;16.210;2023-05-07T03:45:28;8.23;;;6.78;;
45684;SDS011;46836;48.388;16.210;2023-05-07T03:47:55;8.85;;;7.38;;
45684;SDS011;46836;48.388;16.210;2023-05-07T03:50:23;9.82;;;8.10;;
45684;SDS011;46836;48.388;16.210;2023-05-07T03:52:50;9.00;;;7.40;;
45684;SDS011;46836;48.388;16.210;2023-05-07T03:55:17;9.18;;;8.10;;
45684;SDS011;46836;48.388;16.210;2023-05-07T03:57:44;9.10;;;6.88;;
45684;SDS011;46836;48.388;16.210;2023-05-07T04:00:11;9.63;;;8.48;;
45684;SDS011;46836;48.388;16.210;2023-05-07T04:02:39;14.30;;;8.88;;
45684;SDS011;46836;48.388;16.210;2023-05-07T04:05:07;12.57;;;8.60;;
45684;SDS011;46836;48.388;16.210;2023-05-07T04:07:34;9.13;;;8.23;;
45684;SDS011;46836;48.388;16.210;2023-05-07T04:10:01;9.93;;;7.88;;
45684;SDS011;46836;48.388;16.210;2023-05-07T04:12:28;16.90;;;9.43;;
45684;SDS011;46836;48.388;16.210;2023-05-07T04:14:55;16.73;;;9.43;;
45684;SDS011;46836;48.388;16.210;2023-05-07T04:17:22;9.18;;;8.25;;
45684;SDS011;46836;48.388;16.210;2023-05-07T04:19:49;11.63;;;9.02;;
45684;SDS011;46836;48.388;16.210;2023-05-07T04:22:16;11.05;;;8.88;;
45684;SDS011;46836;48.388;16.210;2023-05-07T04:24:43;18.35;;;9.10;;
45684;SDS011;46836;48.388;16.210;2023-05-07T04:27:10;12.57;;;8.77;;
45684;SDS011;46836;48.388;16.210;2023-05-07T04:29:38;14.30;;;10.55;;
45684;SDS011;46836;48.388;16.210;2023-05-07T04:32:09;13.57;;;10.90;;
45684;SDS011;46836;48.388;16.210;2023-05-07T04:34:36;12.60;;;10.27;;
45684;SDS011;46836;48.388;16.210;2023-05-07T04:37:03;12.65;;;10.50;;
45684;SDS011;46836;48.388;16.210;2023-05-07T04:39:30;19.02;;;12.93;;
45684;SDS011;46836;48.388;16.210;2023-05-07T04:41:59;17.48;;;12.48;;
45684;SDS011;46836;48.388;16.210;2023-05-07T04:44:27;16.48;;;12.55;;
45684;SDS011;46836;48.388;16.210;2023-05-07T04:46:54;21.92;;;12.63;;
45684;SDS011;46836;48.388;16.210;2023-05-07T04:49:21;16.98;;;12.77;;
45684;SDS011;46836;48.388;16.210;2023-05-07T04:51:48;19.13;;;13.60;;
45684;SDS011;46836;48.388;16.210;2023-05-07T04:54:15;18.75;;;15.30;;
45684;SDS011;46836;48.388;16.210;2023-05-07T04:56:42;18.05;;;13.45;;
45684;SDS011;46836;48.388;16.210;2023-05-07T04:59:09;17.85;;;13.07;;
45684;SDS011;46836;48.388;16.210;2023-05-07T05:01:36;19.35;;;14.32;;
45684;SDS011;46836;48.388;16.210;2023-05-07T05:04:03;17.05;;;13.35;;
45684;SDS011;46836;48.388;16.210;2023-05-07T05:06:30;20.13;;;15.10;;
45684;SDS011;46836;48.388;16.210;2023-05-07T05:08:57;20.52;;;14.38;;
45684;SDS011;46836;48.388;16.210;2023-05-07T05:11:24;19.35;;;15.38;;
45684;SDS011;46836;48.388;16.210;2023-05-07T05:13:52;21.80;;;15.25;;
45684;SDS011;46836;48.388;16.210;2023-05-07T05:16:19;20.05;;;15.90;;
45684;SDS011;46836;48.388;16.210;2023-05-07T05:18:46;18.88;;;14.52;;
45684;SDS011;46836;48.388;16.210;2023-05-07T05:21:13;16.33;;;13.02;;
45684;SDS011;46836;48.388;16.210;2023-05-07T05:23:40;18.10;;;13.50;;
45684;SDS011;46836;48.388;16.210;2023-05-07T05:26:07;17.45;;;14.07;;
45684;SDS011;46836;48.388;16.210;2023-05-07T05:28:34;17.67;;;13.77;;
45684;SDS011;46836;48.388;16.210;2023-05-07T05:31:01;23.77;;;15.73;;
45684;SDS011;46836;48.388;16.210;2023-05-07T05:33:28;20.98;;;15.80;;
45684;SDS011;46836;48.388;16.210;2023-05-07T05:35:55;20.10;;;15.52;;
45684;SDS011;46836;48.388;16.210;2023-05-07T05:38:22;19.85;;;15.38;;
45684;SDS011;46836;48.388;16.210;2023-05-07T05:40:49;19.48;;;14.95;;
45684;SDS011;46836;48.388;16.210;2023-05-07T05:43:16;20.00;;;15.32;;
45684;SDS011;46836;48.388;16.210;2023-05-07T05:45:44;20.00;;;15.35;;
45684;SDS011;46836;48.388;16.210;2023-05-07T05:48:11;23.95;;;16.15;;
45684;SDS011;46836;48.388;16.210;2023-05-07T05:50:38;17.80;;;13.70;;
45684;SDS011;46836;48.388;16.210;2023-05-07T05:53:05;21.13;;;15.43;;
45684;SDS011;46836;48.388;16.210;2023-05-07T05:55:32;21.02;;;15.63;;
45684;SDS011;46836;48.388;16.210;2023-05-07T05:58:00;21.25;;;15.50;;
45684;SDS011;46836;48.388;16.210;2023-05-07T06:00:28;21.35;;;16.05;;
45684;SDS011;46836;48.388;16.210;2023-05-07T06:02:55;17.35;;;14.45;;
45684;SDS011;46836;48.388;16.210;2023-05-07T06:05:22;20.15;;;15.10;;
45684;SDS011;46836;48.388;16.210;2023-05-07T06:07:50;20.48;;;14.15;;
45684;SDS011;46836;48.388;16.210;2023-05-07T06:10:17;18.45;;;15.13;;
45684;SDS011;46836;48.388;16.210;2023-05-07T06:12:44;21.52;;;16.63;;
45684;SDS011;46836;48.388;16.210;2023-05-07T06:15:11;24.15;;;17.95;;
45684;SDS011;46836;48.388;16.210;2023-05-07T06:17:38;20.33;;;15.77;;
45684;SDS011;46836;48.388;16.210;2023-05-07T06:20:06;18.92;;;13.73;;
45684;SDS011;46836;48.388;16.210;2023-05-07T06:22:34;23.20;;;15.88;;
45684;SDS011;46836;48.388;16.210;2023-05-07T06:25:01;19.95;;;15.82;;
45684;SDS011;46836;48.388;16.210;2023-05-07T06:27:28;18.77;;;14.90;;
45684;SDS011;46836;48.388;16.210;2023-05-07T06:29:55;20.45;;;14.23;;
45684;SDS011;46836;48.388;16.210;2023-05-07T06:32:22;24.60;;;18.50;;
45684;SDS011;46836;48.388;16.210;2023-05-07T06:34:49;20.75;;;16.35;;
45684;SDS011;46836;48.388;16.210;2023-05-07T06:37:16;24.83;;;16.58;;
45684;SDS011;46836;48.388;16.210;2023-05-07T06:39:43;20.70;;;15.77;;
45684;SDS011;46836;48.388;16.210;2023-05-07T06:42:13;23.88;;;16.70;;
45684;SDS011;46836;48.388;16.210;2023-05-07T06:44:40;20.40;;;15.60;;
45684;SDS011;46836;48.388;16.210;2023-05-07T06:47:07;21.92;;;15.63;;
45684;SDS011;46836;48.388;16.210;2023-05-07T06:49:34;20.73;;;15.82;;
45684;SDS011;46836;48.388;16.210;2023-05-07T06:52:01;18.90;;;15.10;;
45684;SDS011;46836;48.388;16.210;2023-05-07T06:54:28;22.90;;;16.17;;
45684;SDS011;46836;48.388;16.210;2023-05-07T06:56:56;21.43;;;15.70;;
45684;SDS011;46836;48.388;16.210;2023-05-07T06:59:23;20.30;;;15.57;;
45684;SDS011;46836;48.388;16.210;2023-05-07T07:01:50;17.07;;;14.23;;
45684;SDS011;46836;48.388;16.210;2023-05-07T07:04:17;20.40;;;15.50;;
45684;SDS011;46836;48.388;16.210;2023-05-07T07:06:45;18.13;;;14.00;;
45684;SDS011;46836;48.388;16.210;2023-05-07T07:09:12;19.20;;;15.60;;
45684;SDS011;46836;48.388;16.210;2023-05-07T07:11:39;18.23;;;14.17;;
45684;SDS011;46836;48.388;16.210;2023-05-07T07:14:06;19.53;;;14.13;;
45684;SDS011;46836;48.388;16.210;2023-05-07T07:16:33;21.40;;;14.60;;
45684;SDS011;46836;48.388;16.210;2023-05-07T07:19:01;19.07;;;14.97;;
45684;SDS011;46836;48.388;16.210;2023-05-07T07:21:28;21.37;;;15.40;;
45684;SDS011;46836;48.388;16.210;2023-05-07T07:23:55;26.33;;;15.80;;
45684;SDS011;46836;48.388;16.210;2023-05-07T07:26:22;20.93;;;14.97;;
45684;SDS011;46836;48.388;16.210;2023-05-07T07:28:49;20.10;;;15.43;;
45684;SDS011;46836;48.388;16.210;2023-05-07T07:31:16;26.47;;;15.70;;
45684;SDS011;46836;48.388;16.210;2023-05-07T07:33:43;18.93;;;15.07;;
45684;SDS011;46836;48.388;16.210;2023-05-07T07:36:10;20.67;;;14.90;;
45684;SDS011;46836;48.388;16.210;2023-05-07T07:38:37;21.67;;;14.30;;
45684;SDS011;46836;48.388;16.210;2023-05-07T07:41:04;20.57;;;15.77;;
45684;SDS011;46836;48.388;16.210;2023-05-07T07:43:31;19.40;;;15.40;;
45684;SDS011;46836;48.388;16.210;2023-05-07T07:45:58;21.42;;;15.77;;
45684;SDS011;46836;48.388;16.210;2023-05-07T07:48:25;15.93;;;12.77;;
45684;SDS011;46836;48.388;16.210;2023-05-07T07:50:52;18.40;;;14.43;;
45684;SDS011;46836;48.388;16.210;2023-05-07T07:53:19;15.13;;;12.70;;
45684;SDS011;46836;48.388;16.210;2023-05-07T07:55:46;17.77;;;13.83;;
45684;SDS011;46836;48.388;16.210;2023-05-07T07:58:13;15.27;;;13.30;;
45684;SDS011;46836;48.388;16.210;2023-05-07T08:00:40;15.03;;;12.83;;
45684;SDS011;46836;48.388;16.210;2023-05-07T08:03:10;16.47;;;12.50;;
45684;SDS011;46836;48.388;16.210;2023-05-07T08:05:38;21.80;;;13.87;;
45684;SDS011;46836;48.388;16.210;2023-05-07T08:08:05;15.00;;;12.80;;
45684;SDS011;46836;48.388;16.210;2023-05-07T08:10:32;17.40;;;13.87;;
45684;SDS011;46836;48.388;16.210;2023-05-07T08:13:01;18.77;;;13.40;;
45684;SDS011;46836;48.388;16.210;2023-05-07T08:15:30;17.00;;;13.23;;
45684;SDS011;46836;48.388;16.210;2023-05-07T08:17:57;19.40;;;14.93;;
45684;SDS011;46836;48.388;16.210;2023-05-07T08:20:26;18.47;;;14.13;;
45684;SDS011;46836;48.388;16.210;2023-05-07T08:22:54;15.83;;;11.60;;
45684;SDS011;46836;48.388;16.210;2023-05-07T08:25:21;16.40;;;11.43;;
45684;SDS011;46836;48.388;16.210;2023-05-07T08:27:48;12.77;;;10.70;;
45684;SDS011;46836;48.388;16.210;2023-05-07T08:30:15;19.00;;;12.17;;
45684;SDS011;46836;48.388;16.210;2023-05-07T08:32:42;14.27;;;11.30;;
45684;SDS011;46836;48.388;16.210;2023-05-07T08:35:09;16.90;;;12.50;;
45684;SDS011;46836;48.388;16.210;2023-05-07T08:37:37;12.53;;;11.17;;
45684;SDS011;46836;48.388;16.210;2023-05-07T08:40:04;14.43;;;11.37;;
45684;SDS011;46836;48.388;16.210;2023-05-07T08:42:36;10.80;;;9.20;;
45684;SDS011;46836;48.388;16.210;2023-05-07T08:45:04;10.93;;;8.83;;
45684;SDS011;46836;48.388;16.210;2023-05-07T08:47:44;14.30;;;9.47;;
45684;SDS011;46836;48.388;16.210;2023-05-07T08:50:14;13.50;;;10.03;;
45684;SDS011;46836;48.388;16.210;2023-05-07T08:52:41;13.10;;;10.13;;
45684;SDS011;46836;48.388;16.210;2023-05-07T08:55:09;14.10;;;10.57;;
45684;SDS011;46836;48.388;16.210;2023-05-07T08:57:37;15.53;;;11.70;;
45684;SDS011;46836;48.388;16.210;2023-05-07T09:00:06;12.07;;;10.37;;
45684;SDS011;46836;48.388;16.210;2023-05-07T09:02:37;12.30;;;10.20;;
45684;SDS011;46836;48.388;16.210;2023-05-07T09:05:04;15.40;;;10.93;;
45684;SDS011;46836;48.388;16.210;2023-05-07T09:07:32;13.70;;;11.70;;
45684;SDS011;46836;48.388;16.210;2023-05-07T09:10:01;13.50;;;10.23;;
45684;SDS011;46836;48.388;16.210;2023-05-07T09:12:30;15.60;;;11.03;;
45684;SDS011;46836;48.388;16.210;2023-05-07T09:14:58;13.80;;;12.00;;
45684;SDS011;46836;48.388;16.210;2023-05-07T09:17:26;18.73;;;12.23;;
45684;SDS011;46836;48.388;16.210;2023-05-07T09:19:54;14.30;;;11.27;;
45684;SDS011;46836;48.388;16.210;2023-05-07T09:22:21;16.57;;;10.90;;
45684;SDS011;46836;48.388;16.210;2023-05-07T09:24:49;14.27;;;10.27;;
45684;SDS011;46836;48.388;16.210;2023-05-07T09:27:17;13.70;;;10.80;;
45684;SDS011;46836;48.388;16.210;2023-05-07T09:29:44;14.57;;;11.70;;
45684;SDS011;46836;48.388;16.210;2023-05-07T09:32:11;12.77;;;10.80;;
45684;SDS011;46836;48.388;16.210;2023-05-07T09:34:38;13.60;;;11.70;;
45684;SDS011;46836;48.388;16.210;2023-05-07T09:37:06;13.97;;;11.50;;
45684;SDS011;46836;48.388;16.210;2023-05-07T09:42:07;15.77;;;11.27;;
45684;SDS011;46836;48.388;16.210;2023-05-07T09:44:34;16.23;;;10.60;;
45684;SDS011;46836;48.388;16.210;2023-05-07T09:47:04;11.70;;;9.93;;
45684;SDS011;46836;48.388;16.210;2023-05-07T09:49:35;12.40;;;9.60;;
45684;SDS011;46836;48.388;16.210;2023-05-07T09:52:05;11.63;;;10.10;;
45684;SDS011;46836;48.388;16.210;2023-05-07T09:54:35;14.83;;;11.20;;
45684;SDS011;46836;48.388;16.210;2023-05-07T09:57:04;13.60;;;10.53;;
45684;SDS011;46836;48.388;16.210;2023-05-07T09:59:33;11.80;;;10.23;;
45684;SDS011;46836;48.388;16.210;2023-05-07T10:02:03;14.17;;;10.90;;
45684;SDS011;46836;48.388;16.210;2023-05-07T10:04:31;12.57;;;10.63;;
45684;SDS011;46836;48.388;16.210;2023-05-07T10:06:58;12.40;;;8.63;;
45684;SDS011;46836;48.388;16.210;2023-05-07T10:09:27;12.50;;;9.27;;
45684;SDS011;46836;48.388;16.210;2023-05-07T10:11:55;15.33;;;9.77;;
45684;SDS011;46836;48.388;16.210;2023-05-07T10:14:23;15.70;;;10.33;;
45684;SDS011;46836;48.388;16.210;2023-05-07T10:16:51;11.53;;;9.60;;
45684;SDS011;46836;48.388;16.210;2023-05-07T10:19:19;11.70;;;8.87;;
45684;SDS011;46836;48.388;16.210;2023-05-07T10:21:51;10.50;;;8.57;;
45684;SDS011;46836;48.388;16.210;2023-05-07T10:24:26;12.47;;;10.20;;
45684;SDS011;46836;48.388;16.210;2023-05-07T10:26:59;11.47;;;9.47;;
45684;SDS011;46836;48.388;16.210;2023-05-07T10:32:44;14.20;;;9.47;;
45684;SDS011;46836;48.388;16.210;2023-05-07T10:35:19;11.20;;;9.23;;
45684;SDS011;46836;48.388;16.210;2023-05-07T10:37:50;10.50;;;8.90;;
45684;SDS011;46836;48.388;16.210;2023-05-07T10:40:17;14.20;;;8.40;;
45684;SDS011;46836;48.388;16.210;2023-05-07T10:42:53;10.50;;;7.90;;
45684;SDS011;46836;48.388;16.210;2023-05-07T10:45:22;10.07;;;8.33;;
45684;SDS011;46836;48.388;16.210;2023-05-07T10:51:17;11.43;;;9.07;;
45684;SDS011;46836;48.388;16.210;2023-05-07T10:54:10;9.90;;;8.67;;
45684;SDS011;46836;48.388;16.210;2023-05-07T10:56:37;10.23;;;8.30;;
45684;SDS011;46836;48.388;16.210;2023-05-07T11:01:52;10.40;;;8.20;;
45684;SDS011;46836;48.388;16.210;2023-05-07T11:04:21;12.97;;;8.97;;
45684;SDS011;46836;48.388;16.210;2023-05-07T11:07:10;11.00;;;8.50;;
45684;SDS011;46836;48.388;16.210;2023-05-07T11:17:59;9.70;;;8.27;;
45684;SDS011;46836;48.388;16.210;2023-05-07T11:20:45;9.13;;;7.17;;
45684;SDS011;46836;48.388;16.210;2023-05-07T11:26:14;9.90;;;7.40;;
45684;SDS011;46836;48.388;16.210;2023-05-07T11:28:42;10.80;;;7.90;;
45684;SDS011;46836;48.388;16.210;2023-05-07T11:31:10;10.20;;;7.73;;
45684;SDS011;46836;48.388;16.210;2023-05-07T11:33:38;10.63;;;9.50;;
45684;SDS011;46836;48.388;16.210;2023-05-07T11:36:05;11.40;;;9.10;;
45684;SDS011;46836;48.388;16.210;2023-05-07T11:38:35;10.03;;;8.80;;
45684;SDS011;46836;48.388;16.210;2023-05-07T11:41:03;9.20;;;8.23;;
45684;SDS011;46836;48.388;16.210;2023-05-07T11:43:32;10.93;;;9.30;;
45684;SDS011;46836;48.388;16.210;2023-05-07T11:46:08;10.93;;;9.40;;
45684;SDS011;46836;48.388;16.210;2023-05-07T11:48:36;10.33;;;8.37;;
45684;SDS011;46836;48.388;16.210;2023-05-07T11:51:04;9.00;;;7.47;;
45684;SDS011;46836;48.388;16.210;2023-05-07T11:53:40;10.17;;;8.10;;
45684;SDS011;46836;48.388;16.210;2023-05-07T11:56:11;10.37;;;8.57;;
45684;SDS011;46836;48.388;16.210;2023-05-07T11:58:40;9.13;;;7.10;;
45684;SDS011;46836;48.388;16.210;2023-05-07T12:01:08;10.20;;;7.77;;
45684;SDS011;46836;48.388;16.210;2023-05-07T12:03:37;10.20;;;7.73;;
45684;SDS011;46836;48.388;16.210;2023-05-07T12:06:09;10.30;;;8.00;;
45684;SDS011;46836;48.388;16.210;2023-05-07T12:08:39;8.20;;;6.80;;
45684;SDS011;46836;48.388;16.210;2023-05-07T12:11:08;15.23;;;7.50;;
45684;SDS011;46836;48.388;16.210;2023-05-07T12:13:39;7.17;;;6.47;;
45684;SDS011;46836;48.388;16.210;2023-05-07T12:16:07;7.83;;;6.87;;
45684;SDS011;46836;48.388;16.210;2023-05-07T12:18:35;7.87;;;7.07;;
45684;SDS011;46836;48.388;16.210;2023-05-07T12:21:04;8.70;;;6.77;;
45684;SDS011;46836;48.388;16.210;2023-05-07T12:23:32;8.63;;;7.60;;
45684;SDS011;46836;48.388;16.210;2023-05-07T12:26:03;9.67;;;7.97;;
45684;SDS011;46836;48.388;16.210;2023-05-07T12:28:36;8.00;;;7.03;;
45684;SDS011;46836;48.388;16.210;2023-05-07T12:31:05;8.30;;;7.13;;
45684;SDS011;46836;48.388;16.210;2023-05-07T12:33:32;7.43;;;6.27;;
45684;SDS011;46836;48.388;16.210;2023-05-07T12:36:05;7.93;;;7.13;;
45684;SDS011;46836;48.388;16.210;2023-05-07T12:38:37;10.23;;;7.90;;
45684;SDS011;46836;48.388;16.210;2023-05-07T12:41:06;7.20;;;6.47;;
45684;SDS011;46836;48.388;16.210;2023-05-07T12:43:36;9.77;;;7.27;;
45684;SDS011;46836;48.388;16.210;2023-05-07T12:46:05;8.10;;;6.27;;
45684;SDS011;46836;48.388;16.210;2023-05-07T12:48:35;8.37;;;7.57;;
45684;SDS011;46836;48.388;16.210;2023-05-07T12:51:04;8.93;;;6.80;;
45684;SDS011;46836;48.388;16.210;2023-05-07T12:53:32;6.77;;;5.97;;
45684;SDS011;46836;48.388;16.210;2023-05-07T12:55:59;8.80;;;7.03;;
45684;SDS011;46836;48.388;16.210;2023-05-07T12:58:28;7.70;;;6.90;;
45684;SDS011;46836;48.388;16.210;2023-05-07T13:00:58;8.00;;;6.97;;
45684;SDS011;46836;48.388;16.210;2023-05-07T13:03:34;8.60;;;7.00;;
45684;SDS011;46836;48.388;16.210;2023-05-07T13:08:34;6.97;;;6.27;;
45684;SDS011;46836;48.388;16.210;2023-05-07T13:11:04;6.57;;;5.70;;
45684;SDS011;46836;48.388;16.210;2023-05-07T13:13:34;6.87;;;5.67;;
45684;SDS011;46836;48.388;16.210;2023-05-07T13:16:03;6.80;;;5.80;;
45684;SDS011;46836;48.388;16.210;2023-05-07T13:18:32;8.07;;;6.93;;
45684;SDS011;46836;48.388;16.210;2023-05-07T13:21:01;10.13;;;6.80;;
45684;SDS011;46836;48.388;16.210;2023-05-07T13:23:28;7.50;;;6.43;;
45684;SDS011;46836;48.388;16.210;2023-05-07T13:25:55;8.13;;;6.47;;
45684;SDS011;46836;48.388;16.210;2023-05-07T13:28:23;6.30;;;5.70;;
45684;SDS011;46836;48.388;16.210;2023-05-07T13:30:52;5.87;;;5.27;;
45684;SDS011;46836;48.388;16.210;2023-05-07T13:33:21;5.70;;;5.20;;
45684;SDS011;46836;48.388;16.210;2023-05-07T13:35:48;7.07;;;5.93;;
45684;SDS011;46836;48.388;16.210;2023-05-07T13:38:15;7.03;;;6.00;;
45684;SDS011;46836;48.388;16.210;2023-05-07T13:40:42;5.50;;;4.50;;
45684;SDS011;46836;48.388;16.210;2023-05-07T13:43:09;6.30;;;5.50;;
45684;SDS011;46836;48.388;16.210;2023-05-07T13:45:37;5.73;;;5.13;;
45684;SDS011;46836;48.388;16.210;2023-05-07T13:48:04;5.90;;;5.20;;
45684;SDS011;46836;48.388;16.210;2023-05-07T13:50:31;6.73;;;5.70;;
45684;SDS011;46836;48.388;16.210;2023-05-07T13:52:58;5.40;;;4.77;;
45684;SDS011;46836;48.388;16.210;2023-05-07T13:55:28;5.50;;;4.83;;
45684;SDS011;46836;48.388;16.210;2023-05-07T13:57:56;5.23;;;4.70;;
45684;SDS011;46836;48.388;16.210;2023-05-07T14:00:25;5.67;;;5.10;;
45684;SDS011;46836;48.388;16.210;2023-05-07T14:02:53;5.27;;;4.77;;
45684;SDS011;46836;48.388;16.210;2023-05-07T14:05:22;5.90;;;5.00;;
45684;SDS011;46836;48.388;16.210;2023-05-07T14:07:50;6.27;;;5.53;;
45684;SDS011;46836;48.388;16.210;2023-05-07T14:10:18;7.30;;;4.40;;
45684;SDS011;46836;48.388;16.210;2023-05-07T14:12:46;7.03;;;5.10;;
45684;SDS011;46836;48.388;16.210;2023-05-07T14:15:14;6.20;;;5.27;;
45684;SDS011;46836;48.388;16.210;2023-05-07T14:17:43;9.77;;;4.70;;
45684;SDS011;46836;48.388;16.210;2023-05-07T14:20:11;5.00;;;4.20;;
45684;SDS011;46836;48.388;16.210;2023-05-07T14:22:39;4.60;;;4.10;;
45684;SDS011;46836;48.388;16.210;2023-05-07T14:25:08;4.33;;;3.93;;
45684;SDS011;46836;48.388;16.210;2023-05-07T14:27:39;4.17;;;3.63;;
45684;SDS011;46836;48.388;16.210;2023-05-07T14:30:07;5.03;;;3.60;;
45684;SDS011;46836;48.388;16.210;2023-05-07T14:32:35;4.43;;;3.63;;
45684;SDS011;46836;48.388;16.210;2023-05-07T14:35:03;4.33;;;3.87;;
45684;SDS011;46836;48.388;16.210;2023-05-07T14:37:30;4.03;;;3.73;;
45684;SDS011;46836;48.388;16.210;2023-05-07T14:39:57;4.27;;;3.97;;
45684;SDS011;46836;48.388;16.210;2023-05-07T14:42:24;5.67;;;4.60;;
45684;SDS011;46836;48.388;16.210;2023-05-07T14:44:51;6.77;;;5.93;;
45684;SDS011;46836;48.388;16.210;2023-05-07T14:47:19;5.03;;;4.63;;
45684;SDS011;46836;48.388;16.210;2023-05-07T14:49:46;4.30;;;3.90;;
45684;SDS011;46836;48.388;16.210;2023-05-07T14:52:13;4.83;;;3.50;;
45684;SDS011;46836;48.388;16.210;2023-05-07T14:54:40;4.67;;;4.17;;